createdAt,value
2018-07-12T00:02:06.354Z,8.37
2018-07-12T00:04:33.960Z,7.40
2018-07-12T00:07:01.519Z,8.10
2018-07-12T00:09:28.963Z,8.77
2018-07-12T00:11:56.413Z,7.47
2018-07-12T00:14:23.873Z,7.67
2018-07-12T00:16:51.338Z,7.60
2018-07-12T00:19:18.911Z,8.23
2018-07-12T00:21:46.356Z,8.30
2018-07-12T00:24:13.892Z,7.63
2018-07-12T00:26:41.353Z,8.10
2018-07-12T00:29:08.806Z,7.67
2018-07-12T00:31:36.277Z,7.73
2018-07-12T00:34:03.746Z,7.80
2018-07-12T00:36:31.205Z,7.80
2018-07-12T00:38:58.658Z,7.50
2018-07-12T00:41:26.132Z,8.07
2018-07-12T00:43:53.622Z,7.43
2018-07-12T00:46:21.067Z,6.87
2018-07-12T00:48:48.530Z,7.47
2018-07-12T00:51:15.967Z,7.83
2018-07-12T00:53:43.429Z,7.80
2018-07-12T00:56:10.903Z,8.47
2018-07-12T00:58:38.346Z,8.37
2018-07-12T01:01:05.790Z,9.20
2018-07-12T01:03:33.247Z,9.03
2018-07-12T01:06:00.749Z,9.50
2018-07-12T01:08:28.271Z,8.93
2018-07-12T01:10:55.862Z,9.73
2018-07-12T01:13:23.367Z,8.13
2018-07-12T01:15:50.834Z,8.67
2018-07-12T01:18:18.298Z,8.60
2018-07-12T01:20:45.753Z,9.00
2018-07-12T01:23:13.202Z,9.27
2018-07-12T01:25:40.638Z,9.53
2018-07-12T01:28:08.081Z,9.37
2018-07-12T01:30:35.591Z,11.60
2018-07-12T01:33:03.061Z,11.50
2018-07-12T01:35:30.562Z,11.00
2018-07-12T01:37:58.013Z,10.87
2018-07-12T01:40:25.517Z,10.97
2018-07-12T01:42:52.993Z,10.73
2018-07-12T01:45:20.480Z,10.87
2018-07-12T01:47:47.959Z,11.20
2018-07-12T01:50:15.474Z,10.93
2018-07-12T01:52:42.947Z,10.90
2018-07-12T01:55:10.406Z,12.27
2018-07-12T01:57:37.853Z,11.00
2018-07-12T02:00:05.440Z,10.87
2018-07-12T02:02:32.911Z,10.37
2018-07-12T02:05:00.354Z,10.20
2018-07-12T02:07:27.926Z,10.43
2018-07-12T02:09:55.392Z,10.20
2018-07-12T02:12:22.926Z,10.37
2018-07-12T02:14:50.403Z,10.90
2018-07-12T02:17:17.905Z,9.23
2018-07-12T02:19:45.414Z,9.47
2018-07-12T02:22:12.889Z,9.90
2018-07-12T02:24:40.354Z,9.00
2018-07-12T02:27:07.860Z,9.70
2018-07-12T02:29:35.322Z,8.90
2018-07-12T02:32:02.790Z,10.10
2018-07-12T02:34:30.296Z,9.60
2018-07-12T02:36:57.758Z,9.97
2018-07-12T02:39:25.231Z,9.60
2018-07-12T02:41:52.761Z,10.20
2018-07-12T02:44:20.253Z,9.87
2018-07-12T02:46:47.698Z,9.93
2018-07-12T02:49:15.483Z,13.97
2018-07-12T02:51:42.954Z,17.23
2018-07-12T02:54:10.469Z,17.37
2018-07-12T02:56:38.018Z,16.00
2018-07-12T02:59:05.470Z,16.80
2018-07-12T03:01:32.947Z,15.90
2018-07-12T03:04:00.411Z,13.83
2018-07-12T03:06:27.863Z,12.53
2018-07-12T03:08:55.344Z,12.03
2018-07-12T03:11:22.824Z,11.23
2018-07-12T03:13:50.411Z,10.73
2018-07-12T03:16:17.887Z,10.43
2018-07-12T03:18:45.363Z,10.77
2018-07-12T03:21:12.826Z,11.60
2018-07-12T03:23:40.334Z,20.53
2018-07-12T03:26:07.806Z,24.17
2018-07-12T03:28:35.288Z,23.43
2018-07-12T03:31:02.752Z,22.20
2018-07-12T03:33:30.203Z,19.77
2018-07-12T03:35:57.672Z,18.37
2018-07-12T03:38:25.179Z,15.80
2018-07-12T03:40:52.657Z,17.50
2018-07-12T03:43:20.331Z,18.67
2018-07-12T03:45:47.789Z,17.00
2018-07-12T03:48:15.296Z,18.53
2018-07-12T03:50:42.758Z,17.70
2018-07-12T03:53:10.234Z,16.70
2018-07-12T03:55:37.728Z,17.73
2018-07-12T03:58:05.231Z,18.33
2018-07-12T04:00:32.903Z,18.93
2018-07-12T04:03:00.433Z,16.80
2018-07-12T04:05:27.952Z,16.37
2018-07-12T04:07:55.401Z,14.93
2018-07-12T04:10:22.882Z,14.17
2018-07-12T04:12:50.367Z,13.73
2018-07-12T04:15:17.846Z,13.03
2018-07-12T04:17:45.864Z,12.67
2018-07-12T04:20:13.347Z,12.37
2018-07-12T04:22:40.799Z,12.60
2018-07-12T04:25:08.269Z,12.77
2018-07-12T04:27:35.716Z,13.00
2018-07-12T04:30:04.216Z,12.60
2018-07-12T04:32:31.665Z,12.77
2018-07-12T04:34:59.160Z,12.43
2018-07-12T04:37:26.610Z,12.20
2018-07-12T04:39:54.090Z,12.73
2018-07-12T04:42:21.566Z,12.73
2018-07-12T04:44:49.022Z,13.03
2018-07-12T04:47:16.543Z,12.83
2018-07-12T04:49:43.990Z,12.27
2018-07-12T04:52:11.442Z,13.23
2018-07-12T04:54:38.917Z,13.47
2018-07-12T04:57:06.449Z,12.13
2018-07-12T04:59:33.897Z,11.37
2018-07-12T05:02:01.371Z,11.13
2018-07-12T05:04:28.928Z,11.23
2018-07-12T05:06:56.400Z,11.23
2018-07-12T05:09:23.870Z,10.33
2018-07-12T05:11:51.341Z,10.77
2018-07-12T05:14:18.938Z,11.07
2018-07-12T05:16:46.596Z,10.90
2018-07-12T05:19:14.062Z,10.63
2018-07-12T05:21:41.520Z,10.27
2018-07-12T05:24:09.010Z,12.00
2018-07-12T05:26:36.555Z,12.30
2018-07-12T05:29:04.013Z,12.50
2018-07-12T05:31:31.478Z,13.40
2018-07-12T05:33:58.983Z,12.67
2018-07-12T05:37:00.909Z,12.57
2018-07-12T05:39:29.708Z,12.80
2018-07-12T05:41:58.575Z,14.40
2018-07-12T05:44:27.370Z,12.83
2018-07-12T05:46:56.154Z,13.10
2018-07-12T05:49:25.024Z,13.17
2018-07-12T05:51:53.865Z,14.23
2018-07-12T05:54:22.688Z,15.20
2018-07-12T05:56:51.844Z,15.57
2018-07-12T05:59:20.887Z,16.57
2018-07-12T06:02:00.639Z,17.10
2018-07-12T06:04:29.454Z,18.80
2018-07-12T06:06:58.286Z,15.90
2018-07-12T06:09:27.051Z,15.87
2018-07-12T06:11:55.828Z,15.73
2018-07-12T06:14:25.030Z,16.13
2018-07-12T06:16:53.834Z,15.67
2018-07-12T06:19:22.607Z,14.17
2018-07-12T06:21:51.397Z,13.97
2018-07-12T06:24:20.177Z,14.20
2018-07-12T06:26:48.955Z,13.43
2018-07-12T06:29:17.762Z,12.70
2018-07-12T06:31:47.577Z,12.60
2018-07-12T06:34:16.461Z,12.23
2018-07-12T06:36:45.426Z,12.03
2018-07-12T06:39:14.210Z,12.57
2018-07-12T06:41:43.574Z,12.60
2018-07-12T06:44:12.407Z,12.40
2018-07-12T06:46:41.230Z,12.63
2018-07-12T06:49:10.005Z,12.73
2018-07-12T06:51:38.827Z,12.47
2018-07-12T06:54:08.017Z,12.83
2018-07-12T06:56:37.158Z,12.07
2018-07-12T06:59:06.553Z,11.93
2018-07-12T07:01:35.369Z,12.03
2018-07-12T07:04:04.386Z,11.60
2018-07-12T07:06:33.153Z,11.37
2018-07-12T07:09:01.982Z,11.03
2018-07-12T07:11:30.848Z,12.30
2018-07-12T07:13:59.716Z,11.33
2018-07-12T07:16:28.510Z,12.20
2018-07-12T07:18:57.286Z,11.20
2018-07-12T07:21:26.070Z,12.73
2018-07-12T07:23:54.995Z,11.70
2018-07-12T07:26:23.957Z,10.83
2018-07-12T07:28:53.208Z,10.87
2018-07-12T07:31:22.068Z,10.87
2018-07-12T07:33:51.087Z,10.07
2018-07-12T07:36:20.174Z,9.60
2018-07-12T07:38:48.968Z,9.03
2018-07-12T07:41:18.555Z,9.30
2018-07-12T07:43:47.320Z,9.13
2018-07-12T07:46:16.117Z,8.60
2018-07-12T07:48:45.447Z,8.70
2018-07-12T07:51:14.203Z,8.53
2018-07-12T07:53:43.023Z,8.70
2018-07-12T07:56:11.798Z,9.77
2018-07-12T07:58:40.783Z,8.53
2018-07-12T08:01:09.547Z,9.30
2018-07-12T08:03:38.358Z,8.83
2018-07-12T08:06:07.227Z,8.07
2018-07-12T08:08:36.027Z,8.50
2018-07-12T08:11:04.846Z,8.30
2018-07-12T08:13:33.637Z,8.17
2018-07-12T08:16:02.436Z,9.17
2018-07-12T08:18:31.200Z,9.00
2018-07-12T08:21:00.004Z,7.57
2018-07-12T08:23:28.846Z,7.80
2018-07-12T08:25:57.809Z,7.90
2018-07-12T08:28:28.646Z,6.67
2018-07-12T08:30:57.447Z,7.60
2018-07-12T08:33:26.529Z,6.80
2018-07-12T08:35:55.482Z,6.33
2018-07-12T08:38:24.258Z,6.60
2018-07-12T08:40:53.010Z,6.47
2018-07-12T08:43:21.880Z,5.80
2018-07-12T08:45:50.668Z,5.70
2018-07-12T08:48:19.470Z,5.50
2018-07-12T08:50:48.276Z,5.97
2018-07-12T08:53:17.109Z,6.70
2018-07-12T08:55:45.854Z,6.10
2018-07-12T08:58:14.613Z,5.93
2018-07-12T09:00:43.428Z,6.43
2018-07-12T09:03:12.198Z,6.20
2018-07-12T09:05:41.083Z,5.63
2018-07-12T09:08:09.857Z,6.10
2018-07-12T09:10:38.645Z,5.50
2018-07-12T09:13:07.433Z,5.83
2018-07-12T09:15:36.189Z,5.50
2018-07-12T09:18:05.034Z,5.50
2018-07-12T09:20:33.777Z,5.73
2018-07-12T09:23:02.636Z,6.00
2018-07-12T09:25:31.572Z,5.73
2018-07-12T09:28:00.511Z,5.20
2018-07-12T09:30:29.309Z,5.30
2018-07-12T09:32:58.117Z,4.80
2018-07-12T09:35:26.890Z,5.00
2018-07-12T09:37:55.641Z,5.87
2018-07-12T09:40:24.754Z,5.27
2018-07-12T09:42:54.064Z,5.50
2018-07-12T09:45:22.942Z,5.83
2018-07-12T09:47:51.714Z,5.87
2018-07-12T09:50:20.523Z,7.13
2018-07-12T09:52:49.327Z,5.47
2018-07-12T09:55:18.201Z,6.00
2018-07-12T09:57:57.992Z,6.30
2018-07-12T10:01:30.708Z,6.67
2018-07-12T10:03:59.462Z,6.30
2018-07-12T10:06:32.215Z,6.17
2018-07-12T10:10:04.013Z,6.20
2018-07-12T10:12:37.851Z,9.20
2018-07-12T10:15:09.631Z,9.07
2018-07-12T10:17:48.552Z,7.57
2018-07-12T10:20:17.713Z,5.40
2018-07-12T10:22:46.508Z,14.43
2018-07-12T10:25:15.269Z,14.87
2018-07-12T10:27:44.049Z,7.70
2018-07-12T10:30:12.827Z,7.80
2018-07-12T10:32:42.282Z,5.87
2018-07-12T10:35:11.141Z,6.10
2018-07-12T10:37:39.899Z,5.63
2018-07-12T10:40:08.651Z,5.43
2018-07-12T10:42:37.399Z,5.40
2018-07-12T10:45:06.238Z,5.90
2018-07-12T10:47:35.131Z,5.67
2018-07-12T10:50:04.004Z,5.73
2018-07-12T10:52:32.833Z,5.60
2018-07-12T10:55:01.782Z,5.80
2018-07-12T10:57:30.638Z,5.67
2018-07-12T10:59:59.435Z,21.07
2018-07-12T11:02:28.213Z,9.03
2018-07-12T11:04:57.005Z,6.47
2018-07-12T11:07:25.812Z,6.10
2018-07-12T11:09:54.586Z,6.00
2018-07-12T11:12:23.437Z,5.47
2018-07-12T11:14:52.194Z,7.07
2018-07-12T11:17:21.889Z,6.20
2018-07-12T11:19:50.638Z,5.60
2018-07-12T11:22:19.867Z,5.23
2018-07-12T11:24:48.654Z,5.80
2018-07-12T11:27:17.537Z,5.50
2018-07-12T11:29:53.973Z,6.03
2018-07-12T11:32:22.745Z,5.37
2018-07-12T11:34:52.062Z,5.27
2018-07-12T11:37:25.864Z,5.00
2018-07-12T11:39:54.602Z,5.30
2018-07-12T11:42:23.583Z,4.77
2018-07-12T11:44:52.370Z,5.97
2018-07-12T11:47:21.341Z,5.20
2018-07-12T11:49:50.142Z,5.23
2018-07-12T11:52:18.894Z,5.50
2018-07-12T11:54:47.767Z,5.20
2018-07-12T11:57:16.610Z,5.33
2018-07-12T11:59:45.345Z,4.97
2018-07-12T12:02:14.185Z,4.37
2018-07-12T12:04:42.950Z,5.13
2018-07-12T12:07:11.686Z,5.33
2018-07-12T12:09:40.413Z,5.03
2018-07-12T12:12:09.206Z,4.70
2018-07-12T12:14:38.157Z,5.20
2018-07-12T12:17:06.957Z,5.03
2018-07-12T12:19:36.750Z,5.00
2018-07-12T12:22:05.473Z,4.60
2018-07-12T12:24:34.310Z,4.97
2018-07-12T12:27:03.097Z,5.10
2018-07-12T12:29:31.862Z,4.70
2018-07-12T12:32:00.623Z,4.40
2018-07-12T12:34:29.431Z,4.30
2018-07-12T12:36:58.172Z,4.30
2018-07-12T12:39:26.932Z,4.27
2018-07-12T12:41:55.764Z,4.57
2018-07-12T12:44:24.679Z,4.80
2018-07-12T12:46:53.468Z,4.40
2018-07-12T12:49:22.242Z,4.33
2018-07-12T12:51:51.022Z,4.17
2018-07-12T12:54:19.758Z,4.17
2018-07-12T12:56:48.513Z,4.50
2018-07-12T12:59:17.266Z,4.70
2018-07-12T13:01:46.097Z,4.50
2018-07-12T13:04:14.854Z,4.43
2018-07-12T13:06:43.643Z,4.13
2018-07-12T13:09:12.565Z,4.13
2018-07-12T13:11:41.326Z,4.03
2018-07-12T13:14:10.168Z,4.10
2018-07-12T13:16:38.930Z,3.97
2018-07-12T13:19:07.678Z,3.90
2018-07-12T13:21:36.451Z,4.37
2018-07-12T13:24:05.662Z,3.83
2018-07-12T13:26:34.483Z,4.40
2018-07-12T13:29:03.282Z,4.53
2018-07-12T13:31:32.046Z,4.70
2018-07-12T13:34:00.910Z,5.40
2018-07-12T13:36:29.671Z,5.73
2018-07-12T13:38:58.491Z,5.50
2018-07-12T13:41:27.253Z,6.07
2018-07-12T13:44:07.428Z,5.00
2018-07-12T13:46:36.237Z,5.60
2018-07-12T13:49:05.193Z,5.50
2018-07-12T13:51:34.035Z,5.30
2018-07-12T13:54:02.818Z,5.27
2018-07-12T13:56:31.617Z,5.53
2018-07-12T13:59:00.491Z,5.97
2018-07-12T14:01:29.365Z,5.57
2018-07-12T14:03:58.107Z,5.30
2018-07-12T14:06:26.915Z,5.67
2018-07-12T14:08:55.727Z,5.47
2018-07-12T14:11:24.518Z,5.97
2018-07-12T14:13:53.515Z,5.70
2018-07-12T14:16:22.803Z,5.57
2018-07-12T14:18:51.712Z,5.63
2018-07-12T14:21:20.476Z,5.70
2018-07-12T14:23:49.278Z,5.80
2018-07-12T14:26:18.015Z,5.63
2018-07-12T14:28:46.783Z,6.00
2018-07-12T14:31:15.780Z,5.90
2018-07-12T14:33:44.560Z,5.37
2018-07-12T14:36:13.378Z,5.07
2018-07-12T14:38:42.122Z,5.57
2018-07-12T14:41:10.918Z,5.63
2018-07-12T14:43:39.745Z,5.57
2018-07-12T14:46:08.851Z,5.40
2018-07-12T14:48:37.671Z,5.93
2018-07-12T14:51:06.462Z,5.70
2018-07-12T14:53:35.251Z,5.30
2018-07-12T14:56:04.220Z,5.13
2018-07-12T14:58:32.959Z,4.83
2018-07-12T15:01:01.776Z,5.10
2018-07-12T15:03:30.624Z,5.03
2018-07-12T15:05:59.412Z,5.30
2018-07-12T15:08:28.200Z,5.00
2018-07-12T15:10:56.994Z,4.70
2018-07-12T15:13:26.055Z,4.77
2018-07-12T15:15:54.841Z,4.83
2018-07-12T15:18:23.616Z,4.73
2018-07-12T15:20:52.403Z,5.37
2018-07-12T15:23:21.227Z,5.10
2018-07-12T15:25:50.030Z,5.20
2018-07-12T15:28:19.003Z,5.00
2018-07-12T15:30:47.762Z,5.50
2018-07-12T15:33:16.557Z,6.10
2018-07-12T15:35:45.398Z,6.10
2018-07-12T15:38:14.302Z,5.10
2018-07-12T15:40:43.134Z,5.93
2018-07-12T15:43:13.050Z,5.10
2018-07-12T15:45:45.713Z,5.17
2018-07-12T15:48:16.004Z,5.37
2018-07-12T15:50:46.002Z,6.93
2018-07-12T15:53:16.720Z,5.97
2018-07-12T15:55:46.132Z,5.97
2018-07-12T15:58:14.959Z,4.80
2018-07-12T16:00:43.782Z,5.20
2018-07-12T16:03:12.579Z,4.50
2018-07-12T16:05:41.466Z,4.60
2018-07-12T16:08:10.266Z,5.37
2018-07-12T16:10:39.311Z,5.47
2018-07-12T16:13:08.440Z,5.73
2018-07-12T16:15:37.223Z,5.67
2018-07-12T16:18:06.035Z,6.30
2018-07-12T16:20:34.791Z,5.47
2018-07-12T16:23:04.478Z,5.73
2018-07-12T16:25:33.357Z,5.93
2018-07-12T16:28:02.140Z,6.17
2018-07-12T16:30:30.949Z,6.20
2018-07-12T16:32:59.739Z,6.30
2018-07-12T16:35:28.613Z,7.83
2018-07-12T16:37:57.491Z,6.70
2018-07-12T16:40:26.984Z,5.27
2018-07-12T16:42:55.768Z,6.63
2018-07-12T16:45:24.601Z,8.13
2018-07-12T16:47:53.408Z,6.43
2018-07-12T16:50:22.256Z,7.87
2018-07-12T16:52:51.016Z,6.70
2018-07-12T16:55:19.821Z,6.37
2018-07-12T16:57:48.634Z,6.30
2018-07-12T17:00:19.794Z,6.90
2018-07-12T17:02:49.458Z,6.63
2018-07-12T17:05:20.218Z,7.33
2018-07-12T17:07:49.228Z,6.77
2018-07-12T17:10:18.149Z,7.27
2018-07-12T17:12:47.031Z,6.63
2018-07-12T17:15:15.835Z,6.33
2018-07-12T19:19:10.954Z,10.60
2018-07-12T19:21:40.167Z,11.57
2018-07-12T19:24:08.948Z,12.37
2018-07-12T19:26:38.540Z,13.70
2018-07-12T19:29:07.627Z,12.73
2018-07-12T19:31:36.471Z,12.60
2018-07-12T19:34:05.274Z,13.00
2018-07-12T19:36:34.063Z,14.40
2018-07-12T19:39:03.001Z,17.27
2018-07-12T19:41:32.156Z,17.40
2018-07-12T19:44:01.158Z,16.53
2018-07-12T19:46:30.085Z,13.73
2018-07-12T19:48:59.175Z,13.00
2018-07-12T19:51:29.157Z,11.67
2018-07-12T19:53:57.930Z,13.03
2018-07-12T19:56:26.753Z,12.40
2018-07-12T19:58:55.652Z,14.23
2018-07-12T20:01:24.632Z,13.27
2018-07-12T20:03:53.501Z,12.73
2018-07-12T20:06:22.515Z,13.43
2018-07-12T20:08:51.371Z,14.23
2018-07-12T20:11:20.176Z,14.23
2018-07-12T20:13:49.049Z,14.33
2018-07-12T20:16:17.947Z,12.03
2018-07-12T20:18:46.735Z,12.50
2018-07-12T20:21:15.594Z,13.40
2018-07-12T20:23:44.360Z,12.93
2018-07-12T20:26:15.215Z,14.20
2018-07-12T20:28:44.156Z,16.40
2018-07-12T20:31:13.012Z,12.83
2018-07-12T20:33:42.344Z,17.60
2018-07-12T20:36:11.293Z,13.83
2018-07-12T20:38:40.882Z,13.83
2018-07-12T20:41:09.703Z,13.60
2018-07-12T20:43:38.559Z,11.43
2018-07-12T20:46:08.466Z,12.50
2018-07-12T20:48:37.264Z,11.63
2018-07-12T20:51:06.364Z,12.00
2018-07-12T20:53:35.171Z,12.27
2018-07-12T20:56:03.981Z,12.70
2018-07-12T20:58:32.779Z,11.50
2018-07-12T21:01:01.569Z,11.47
2018-07-12T21:03:30.510Z,11.00
2018-07-12T21:05:59.324Z,10.30
2018-07-12T21:08:28.148Z,11.10
2018-07-12T21:10:56.884Z,10.87
2018-07-12T21:13:25.688Z,16.37
2018-07-12T21:15:54.532Z,12.83
2018-07-12T21:18:23.343Z,13.33
2018-07-12T21:20:52.158Z,15.07
2018-07-12T21:23:20.928Z,10.87
2018-07-12T21:25:49.736Z,10.67
2018-07-12T21:28:18.537Z,10.87
2018-07-12T21:30:47.386Z,10.07
2018-07-12T21:33:16.191Z,11.37
2018-07-12T21:35:45.146Z,12.53
2018-07-12T21:38:14.051Z,10.87
2018-07-12T21:40:42.851Z,11.70
2018-07-12T21:43:11.703Z,9.87
2018-07-12T21:45:40.484Z,10.77
2018-07-12T21:48:09.365Z,10.57
2018-07-12T21:50:38.159Z,9.37
2018-07-12T21:53:07.011Z,16.37
2018-07-12T21:55:35.831Z,19.07
2018-07-12T21:58:04.649Z,15.60
2018-07-12T22:00:34.137Z,17.07
2018-07-12T22:03:02.946Z,16.60
2018-07-12T22:05:31.752Z,17.07
2018-07-12T22:08:09.403Z,20.10
2018-07-12T22:10:38.977Z,14.10
2018-07-12T22:13:08.064Z,23.50
2018-07-12T22:15:36.887Z,18.97
2018-07-12T22:18:05.722Z,17.33
2018-07-12T22:20:34.547Z,15.87
2018-07-12T22:23:03.857Z,18.40
2018-07-12T22:25:33.143Z,20.53
2018-07-12T22:28:01.996Z,22.30
2018-07-12T22:30:31.290Z,20.73
2018-07-12T22:33:01.454Z,16.37
2018-07-12T22:35:30.374Z,14.17
2018-07-12T22:38:00.304Z,12.77
2018-07-12T22:40:29.299Z,20.87
2018-07-12T22:42:58.366Z,18.37
2018-07-12T22:45:27.144Z,20.43
2018-07-12T22:47:56.169Z,18.17
2018-07-12T22:50:25.336Z,25.20
2018-07-12T22:52:54.263Z,19.70
2018-07-12T22:55:23.175Z,17.27
2018-07-12T22:57:51.959Z,20.60
2018-07-12T23:00:20.892Z,23.23
2018-07-12T23:02:49.686Z,16.53
2018-07-12T23:05:18.530Z,18.83
2018-07-12T23:07:47.362Z,25.67
2018-07-12T23:10:16.137Z,12.87
2018-07-12T23:12:44.922Z,13.67
2018-07-12T23:15:13.682Z,18.20
2018-07-12T23:17:42.469Z,13.10
2018-07-12T23:20:11.280Z,15.53
2018-07-12T23:22:40.082Z,18.40
2018-07-12T23:25:08.847Z,16.70
2018-07-12T23:27:37.619Z,19.30
2018-07-12T23:30:07.048Z,19.37
2018-07-12T23:32:35.831Z,21.17
2018-07-12T23:35:04.700Z,20.33
2018-07-12T23:37:33.520Z,17.47
2018-07-12T23:40:02.300Z,16.37
2018-07-12T23:42:31.036Z,18.27
2018-07-12T23:44:59.819Z,14.47
2018-07-12T23:47:28.612Z,16.07
2018-07-12T23:49:57.399Z,16.67
2018-07-12T23:52:26.185Z,18.70
2018-07-12T23:54:54.997Z,17.53
2018-07-12T23:57:23.955Z,17.80
2018-07-12T23:59:52.697Z,24.13
